sensor_id;sensor_type;location;lat;lon;timestamp;P1;durP1;ratioP1;P2;durP2;ratioP2
37284;SDS011;23172;53.550;9.964;2023-05-07T00:01:37;13.43;;;12.00;;
37284;SDS011;23172;53.550;9.964;2023-05-07T00:06:39;13.15;;;11.88;;
37284;SDS011;23172;53.550;9.964;2023-05-07T00:11:42;16.00;;;14.38;;
37284;SDS011;23172;53.550;9.964;2023-05-07T00:21:52;13.75;;;12.35;;
37284;SDS011;23172;53.550;9.964;2023-05-07T00:26:57;11.90;;;10.48;;
37284;SDS011;23172;53.550;9.964;2023-05-07T00:31:59;12.30;;;10.88;;
37284;SDS011;23172;53.550;9.964;2023-05-07T00:37:00;17.17;;;12.05;;
37284;SDS011;23172;53.550;9.964;2023-05-07T00:42:04;12.63;;;10.95;;
37284;SDS011;23172;53.550;9.964;2023-05-07T00:47:06;10.30;;;9.30;;
37284;SDS011;23172;53.550;9.964;2023-05-07T00:52:09;12.32;;;10.90;;
37284;SDS011;23172;53.550;9.964;2023-05-07T00:57:13;12.57;;;11.07;;
37284;SDS011;23172;53.550;9.964;2023-05-07T01:02:15;9.65;;;8.73;;
37284;SDS011;23172;53.550;9.964;2023-05-07T01:07:17;11.07;;;9.75;;
37284;SDS011;23172;53.550;9.964;2023-05-07T01:12:21;9.55;;;8.65;;
37284;SDS011;23172;53.550;9.964;2023-05-07T01:17:23;8.07;;;7.28;;
37284;SDS011;23172;53.550;9.964;2023-05-07T01:22:29;9.35;;;8.40;;
37284;SDS011;23172;53.550;9.964;2023-05-07T01:27:32;10.10;;;8.27;;
37284;SDS011;23172;53.550;9.964;2023-05-07T01:32:36;9.98;;;8.98;;
37284;SDS011;23172;53.550;9.964;2023-05-07T01:37:41;8.98;;;8.07;;
37284;SDS011;23172;53.550;9.964;2023-05-07T01:42:43;7.30;;;6.60;;
37284;SDS011;23172;53.550;9.964;2023-05-07T01:47:45;10.90;;;9.85;;
37284;SDS011;23172;53.550;9.964;2023-05-07T01:52:49;9.00;;;8.18;;
37284;SDS011;23172;53.550;9.964;2023-05-07T01:57:52;7.18;;;6.47;;
37284;SDS011;23172;53.550;9.964;2023-05-07T02:02:54;7.60;;;6.90;;
37284;SDS011;23172;53.550;9.964;2023-05-07T02:07:58;7.78;;;7.03;;
37284;SDS011;23172;53.550;9.964;2023-05-07T02:13:00;10.07;;;9.07;;
37284;SDS011;23172;53.550;9.964;2023-05-07T02:18:03;8.68;;;7.78;;
37284;SDS011;23172;53.550;9.964;2023-05-07T02:23:07;9.05;;;8.15;;
37284;SDS011;23172;53.550;9.964;2023-05-07T02:28:09;7.72;;;6.93;;
37284;SDS011;23172;53.550;9.964;2023-05-07T02:33:11;7.97;;;7.18;;
37284;SDS011;23172;53.550;9.964;2023-05-07T02:38:15;6.78;;;6.10;;
37284;SDS011;23172;53.550;9.964;2023-05-07T02:43:17;7.00;;;6.32;;
37284;SDS011;23172;53.550;9.964;2023-05-07T02:48:19;8.45;;;7.65;;
37284;SDS011;23172;53.550;9.964;2023-05-07T02:53:23;6.85;;;5.65;;
37284;SDS011;23172;53.550;9.964;2023-05-07T02:58:26;10.30;;;8.82;;
37284;SDS011;23172;53.550;9.964;2023-05-07T03:03:28;7.80;;;7.07;;
37284;SDS011;23172;53.550;9.964;2023-05-07T03:08:31;10.48;;;8.13;;
37284;SDS011;23172;53.550;9.964;2023-05-07T03:13:34;8.27;;;7.38;;
37284;SDS011;23172;53.550;9.964;2023-05-07T03:18:36;8.98;;;8.07;;
37284;SDS011;23172;53.550;9.964;2023-05-07T03:23:39;7.13;;;6.25;;
37284;SDS011;23172;53.550;9.964;2023-05-07T03:28:41;9.88;;;8.88;;
37284;SDS011;23172;53.550;9.964;2023-05-07T03:33:50;9.65;;;8.70;;
37284;SDS011;23172;53.550;9.964;2023-05-07T03:38:54;11.52;;;9.52;;
37284;SDS011;23172;53.550;9.964;2023-05-07T03:43:56;9.27;;;8.38;;
37284;SDS011;23172;53.550;9.964;2023-05-07T03:48:58;9.32;;;8.40;;
37284;SDS011;23172;53.550;9.964;2023-05-07T03:54:02;9.70;;;8.80;;
37284;SDS011;23172;53.550;9.964;2023-05-07T03:59:04;7.68;;;6.97;;
37284;SDS011;23172;53.550;9.964;2023-05-07T04:04:06;10.45;;;9.13;;
37284;SDS011;23172;53.550;9.964;2023-05-07T04:09:10;31.92;;;22.45;;
37284;SDS011;23172;53.550;9.964;2023-05-07T04:14:12;9.82;;;8.77;;
37284;SDS011;23172;53.550;9.964;2023-05-07T04:19:14;9.98;;;8.73;;
37284;SDS011;23172;53.550;9.964;2023-05-07T04:24:18;9.15;;;8.25;;
37284;SDS011;23172;53.550;9.964;2023-05-07T04:29:20;8.68;;;7.88;;
37284;SDS011;23172;53.550;9.964;2023-05-07T04:34:22;10.35;;;9.27;;
37284;SDS011;23172;53.550;9.964;2023-05-07T04:39:25;9.40;;;8.50;;
37284;SDS011;23172;53.550;9.964;2023-05-07T04:44:27;8.30;;;7.53;;
37284;SDS011;23172;53.550;9.964;2023-05-07T04:49:31;9.48;;;8.60;;
37284;SDS011;23172;53.550;9.964;2023-05-07T04:54:34;7.60;;;6.90;;
37284;SDS011;23172;53.550;9.964;2023-05-07T04:59:36;9.10;;;8.20;;
37284;SDS011;23172;53.550;9.964;2023-05-07T05:04:38;7.72;;;7.03;;
37284;SDS011;23172;53.550;9.964;2023-05-07T05:09:42;7.38;;;6.65;;
37284;SDS011;23172;53.550;9.964;2023-05-07T05:14:44;7.45;;;6.75;;
37284;SDS011;23172;53.550;9.964;2023-05-07T05:19:47;6.53;;;5.93;;
37284;SDS011;23172;53.550;9.964;2023-05-07T05:24:51;8.10;;;7.30;;
37284;SDS011;23172;53.550;9.964;2023-05-07T05:29:53;9.80;;;8.05;;
37284;SDS011;23172;53.550;9.964;2023-05-07T05:34:55;8.00;;;7.25;;
37284;SDS011;23172;53.550;9.964;2023-05-07T05:39:58;8.48;;;7.57;;
37284;SDS011;23172;53.550;9.964;2023-05-07T05:45:00;7.03;;;6.30;;
37284;SDS011;23172;53.550;9.964;2023-05-07T05:50:03;7.88;;;7.18;;
37284;SDS011;23172;53.550;9.964;2023-05-07T05:55:08;7.65;;;6.95;;
37284;SDS011;23172;53.550;9.964;2023-05-07T06:00:10;8.27;;;7.40;;
37284;SDS011;23172;53.550;9.964;2023-05-07T06:05:13;8.40;;;7.70;;
37284;SDS011;23172;53.550;9.964;2023-05-07T06:10:16;7.10;;;6.40;;
37284;SDS011;23172;53.550;9.964;2023-05-07T06:15:18;8.32;;;7.53;;
37284;SDS011;23172;53.550;9.964;2023-05-07T06:20:20;8.05;;;7.25;;
37284;SDS011;23172;53.550;9.964;2023-05-07T06:25:24;7.85;;;7.15;;
37284;SDS011;23172;53.550;9.964;2023-05-07T06:30:26;6.80;;;6.10;;
37284;SDS011;23172;53.550;9.964;2023-05-07T06:35:28;8.77;;;6.88;;
37284;SDS011;23172;53.550;9.964;2023-05-07T06:40:32;7.95;;;7.18;;
37284;SDS011;23172;53.550;9.964;2023-05-07T06:45:34;7.70;;;6.97;;
37284;SDS011;23172;53.550;9.964;2023-05-07T06:50:36;7.72;;;7.03;;
37284;SDS011;23172;53.550;9.964;2023-05-07T06:55:39;9.32;;;8.43;;
37284;SDS011;23172;53.550;9.964;2023-05-07T07:00:42;6.70;;;6.10;;
37284;SDS011;23172;53.550;9.964;2023-05-07T07:05:44;8.40;;;7.60;;
37284;SDS011;23172;53.550;9.964;2023-05-07T07:10:47;7.40;;;6.05;;
37284;SDS011;23172;53.550;9.964;2023-05-07T07:15:51;8.55;;;7.75;;
37284;SDS011;23172;53.550;9.964;2023-05-07T07:20:53;8.95;;;6.95;;
37284;SDS011;23172;53.550;9.964;2023-05-07T07:25:56;6.70;;;6.10;;
37284;SDS011;23172;53.550;9.964;2023-05-07T07:30:58;7.10;;;6.22;;
37284;SDS011;23172;53.550;9.964;2023-05-07T07:36:00;6.15;;;5.55;;
37284;SDS011;23172;53.550;9.964;2023-05-07T07:41:04;7.65;;;6.85;;
37284;SDS011;23172;53.550;9.964;2023-05-07T07:46:06;6.93;;;6.22;;
37284;SDS011;23172;53.550;9.964;2023-05-07T07:51:08;7.95;;;6.65;;
37284;SDS011;23172;53.550;9.964;2023-05-07T07:56:12;7.43;;;6.63;;
37284;SDS011;23172;53.550;9.964;2023-05-07T08:01:14;6.10;;;5.55;;
37284;SDS011;23172;53.550;9.964;2023-05-07T08:06:17;5.13;;;4.50;;
37284;SDS011;23172;53.550;9.964;2023-05-07T08:11:20;6.05;;;5.50;;
37284;SDS011;23172;53.550;9.964;2023-05-07T08:16:23;5.93;;;5.32;;
37284;SDS011;23172;53.550;9.964;2023-05-07T08:21:25;7.95;;;6.13;;
37284;SDS011;23172;53.550;9.964;2023-05-07T08:26:28;6.75;;;6.13;;
37284;SDS011;23172;53.550;9.964;2023-05-07T08:31:30;6.82;;;6.22;;
37284;SDS011;23172;53.550;9.964;2023-05-07T08:36:33;7.97;;;6.18;;
37284;SDS011;23172;53.550;9.964;2023-05-07T08:41:36;6.55;;;6.00;;
37284;SDS011;23172;53.550;9.964;2023-05-07T08:46:38;7.28;;;5.88;;
37284;SDS011;23172;53.550;9.964;2023-05-07T08:51:42;6.80;;;6.25;;
37284;SDS011;23172;53.550;9.964;2023-05-07T08:56:45;6.43;;;5.82;;
37284;SDS011;23172;53.550;9.964;2023-05-07T09:01:47;6.80;;;6.18;;
37284;SDS011;23172;53.550;9.964;2023-05-07T09:06:49;5.57;;;5.10;;
37284;SDS011;23172;53.550;9.964;2023-05-07T09:11:57;7.95;;;7.20;;
37284;SDS011;23172;53.550;9.964;2023-05-07T09:16:59;7.68;;;6.97;;
37284;SDS011;23172;53.550;9.964;2023-05-07T09:22:02;6.22;;;5.72;;
37284;SDS011;23172;53.550;9.964;2023-05-07T09:27:06;6.85;;;6.18;;
37284;SDS011;23172;53.550;9.964;2023-05-07T09:32:10;6.93;;;6.43;;
37284;SDS011;23172;53.550;9.964;2023-05-07T09:37:13;10.43;;;9.73;;
37284;SDS011;23172;53.550;9.964;2023-05-07T09:42:22;11.15;;;10.50;;
37284;SDS011;23172;53.550;9.964;2023-05-07T09:47:24;12.20;;;11.40;;
37284;SDS011;23172;53.550;9.964;2023-05-07T09:52:28;13.00;;;12.20;;
37284;SDS011;23172;53.550;9.964;2023-05-07T09:57:34;12.80;;;12.10;;
37284;SDS011;23172;53.550;9.964;2023-05-07T10:02:38;14.68;;;13.88;;
37284;SDS011;23172;53.550;9.964;2023-05-07T10:07:46;14.20;;;13.30;;
37284;SDS011;23172;53.550;9.964;2023-05-07T10:12:49;16.05;;;15.15;;
37284;SDS011;23172;53.550;9.964;2023-05-07T10:17:52;15.70;;;14.60;;
37284;SDS011;23172;53.550;9.964;2023-05-07T10:22:55;14.18;;;13.15;;
37284;SDS011;23172;53.550;9.964;2023-05-07T10:28:00;14.45;;;13.65;;
37284;SDS011;23172;53.550;9.964;2023-05-07T10:33:07;13.80;;;13.10;;
37284;SDS011;23172;53.550;9.964;2023-05-07T10:38:11;13.45;;;12.75;;
37284;SDS011;23172;53.550;9.964;2023-05-07T10:43:15;12.23;;;11.43;;
37284;SDS011;23172;53.550;9.964;2023-05-07T10:48:16;12.60;;;11.73;;
37284;SDS011;23172;53.550;9.964;2023-05-07T10:53:22;12.27;;;11.48;;
37284;SDS011;23172;53.550;9.964;2023-05-07T10:58:30;11.30;;;10.70;;
37284;SDS011;23172;53.550;9.964;2023-05-07T11:03:33;11.07;;;10.48;;
37284;SDS011;23172;53.550;9.964;2023-05-07T11:08:53;9.90;;;9.40;;
37284;SDS011;23172;53.550;9.964;2023-05-07T11:13:57;12.38;;;11.68;;
37284;SDS011;23172;53.550;9.964;2023-05-07T11:18:59;11.30;;;10.70;;
37284;SDS011;23172;53.550;9.964;2023-05-07T11:24:01;14.82;;;14.02;;
37284;SDS011;23172;53.550;9.964;2023-05-07T11:29:08;25.63;;;24.38;;
37284;SDS011;23172;53.550;9.964;2023-05-07T11:34:12;36.35;;;34.78;;
37284;SDS011;23172;53.550;9.964;2023-05-07T11:39:26;50.97;;;48.70;;
37284;SDS011;23172;53.550;9.964;2023-05-07T11:44:43;58.38;;;55.88;;
37284;SDS011;23172;53.550;9.964;2023-05-07T11:49:47;63.05;;;60.45;;
37284;SDS011;23172;53.550;9.964;2023-05-07T11:54:49;76.75;;;73.78;;
37284;SDS011;23172;53.550;9.964;2023-05-07T11:59:53;104.45;;;100.55;;
37284;SDS011;23172;53.550;9.964;2023-05-07T12:04:55;97.50;;;93.80;;
37284;SDS011;23172;53.550;9.964;2023-05-07T12:09:57;79.82;;;76.57;;
37284;SDS011;23172;53.550;9.964;2023-05-07T12:15:01;74.55;;;71.63;;
37284;SDS011;23172;53.550;9.964;2023-05-07T12:20:03;78.55;;;75.57;;
37284;SDS011;23172;53.550;9.964;2023-05-07T12:25:06;101.20;;;97.43;;
37284;SDS011;23172;53.550;9.964;2023-05-07T12:30:11;95.97;;;92.32;;
37284;SDS011;23172;53.550;9.964;2023-05-07T12:35:14;123.07;;;118.50;;
37284;SDS011;23172;53.550;9.964;2023-05-07T12:40:15;126.93;;;121.53;;
37284;SDS011;23172;53.550;9.964;2023-05-07T12:45:19;112.32;;;108.13;;
37284;SDS011;23172;53.550;9.964;2023-05-07T12:50:21;101.75;;;98.00;;
37284;SDS011;23172;53.550;9.964;2023-05-07T12:55:23;181.90;;;174.25;;
37284;SDS011;23172;53.550;9.964;2023-05-07T13:00:33;116.65;;;111.78;;
37284;SDS011;23172;53.550;9.964;2023-05-07T13:05:36;112.90;;;108.57;;
37284;SDS011;23172;53.550;9.964;2023-05-07T13:10:38;106.15;;;102.15;;
37284;SDS011;23172;53.550;9.964;2023-05-07T13:15:41;106.85;;;102.70;;
37284;SDS011;23172;53.550;9.964;2023-05-07T13:20:43;95.97;;;92.25;;
37284;SDS011;23172;53.550;9.964;2023-05-07T13:25:45;104.28;;;100.40;;
37284;SDS011;23172;53.550;9.964;2023-05-07T13:30:48;93.60;;;90.00;;
37284;SDS011;23172;53.550;9.964;2023-05-07T13:35:51;91.95;;;88.57;;
37284;SDS011;23172;53.550;9.964;2023-05-07T13:40:53;91.45;;;88.10;;
37284;SDS011;23172;53.550;9.964;2023-05-07T13:45:56;101.13;;;97.22;;
37284;SDS011;23172;53.550;9.964;2023-05-07T13:50:58;93.40;;;89.95;;
37284;SDS011;23172;53.550;9.964;2023-05-07T13:56:00;83.80;;;80.63;;
37284;SDS011;23172;53.550;9.964;2023-05-07T14:01:05;77.93;;;75.07;;
37284;SDS011;23172;53.550;9.964;2023-05-07T14:06:07;92.38;;;88.80;;
37284;SDS011;23172;53.550;9.964;2023-05-07T14:11:09;86.32;;;83.13;;
37284;SDS011;23172;53.550;9.964;2023-05-07T14:16:12;85.13;;;81.97;;
37284;SDS011;23172;53.550;9.964;2023-05-07T14:21:14;83.80;;;80.65;;
37284;SDS011;23172;53.550;9.964;2023-05-07T14:26:16;81.55;;;78.45;;
37284;SDS011;23172;53.550;9.964;2023-05-07T14:31:20;83.93;;;80.88;;
37284;SDS011;23172;53.550;9.964;2023-05-07T14:36:22;83.57;;;80.50;;
37284;SDS011;23172;53.550;9.964;2023-05-07T14:41:26;79.50;;;76.47;;
37284;SDS011;23172;53.550;9.964;2023-05-07T14:46:29;101.45;;;96.65;;
37284;SDS011;23172;53.550;9.964;2023-05-07T14:51:31;111.05;;;106.22;;
37284;SDS011;23172;53.550;9.964;2023-05-07T14:56:34;92.93;;;89.22;;
37284;SDS011;23172;53.550;9.964;2023-05-07T15:01:37;93.82;;;90.13;;
37284;SDS011;23172;53.550;9.964;2023-05-07T15:06:42;84.85;;;81.55;;
37284;SDS011;23172;53.550;9.964;2023-05-07T15:11:44;82.18;;;79.00;;
37284;SDS011;23172;53.550;9.964;2023-05-07T15:16:47;82.25;;;79.25;;
37284;SDS011;23172;53.550;9.964;2023-05-07T15:21:49;78.47;;;75.53;;
37284;SDS011;23172;53.550;9.964;2023-05-07T15:26:51;79.88;;;76.88;;
37284;SDS011;23172;53.550;9.964;2023-05-07T15:31:55;74.45;;;71.45;;
37284;SDS011;23172;53.550;9.964;2023-05-07T15:36:57;73.47;;;70.82;;
37284;SDS011;23172;53.550;9.964;2023-05-07T15:41:59;73.85;;;71.05;;
37284;SDS011;23172;53.550;9.964;2023-05-07T15:47:02;69.80;;;67.13;;
37284;SDS011;23172;53.550;9.964;2023-05-07T15:52:04;50.75;;;48.70;;
37284;SDS011;23172;53.550;9.964;2023-05-07T15:57:06;50.65;;;48.47;;
37284;SDS011;23172;53.550;9.964;2023-05-07T16:02:10;60.95;;;58.50;;
37284;SDS011;23172;53.550;9.964;2023-05-07T16:07:12;50.40;;;48.45;;
37284;SDS011;23172;53.550;9.964;2023-05-07T16:12:14;46.33;;;44.50;;
37284;SDS011;23172;53.550;9.964;2023-05-07T16:17:18;46.90;;;45.17;;
37284;SDS011;23172;53.550;9.964;2023-05-07T16:22:20;47.28;;;45.25;;
37284;SDS011;23172;53.550;9.964;2023-05-07T16:27:24;44.78;;;43.03;;
37284;SDS011;23172;53.550;9.964;2023-05-07T16:32:27;43.92;;;42.10;;
37284;SDS011;23172;53.550;9.964;2023-05-07T16:37:29;45.58;;;43.72;;
37284;SDS011;23172;53.550;9.964;2023-05-07T16:42:32;44.42;;;42.38;;
37284;SDS011;23172;53.550;9.964;2023-05-07T16:47:35;45.30;;;43.47;;
37284;SDS011;23172;53.550;9.964;2023-05-07T16:52:37;37.20;;;35.78;;
37284;SDS011;23172;53.550;9.964;2023-05-07T16:57:39;40.22;;;38.67;;
37284;SDS011;23172;53.550;9.964;2023-05-07T17:02:42;38.38;;;36.85;;
37284;SDS011;23172;53.550;9.964;2023-05-07T17:07:44;39.78;;;38.28;;
37284;SDS011;23172;53.550;9.964;2023-05-07T17:12:46;43.42;;;41.65;;
37284;SDS011;23172;53.550;9.964;2023-05-07T17:17:49;44.25;;;42.55;;
37284;SDS011;23172;53.550;9.964;2023-05-07T17:22:51;44.47;;;42.65;;
37284;SDS011;23172;53.550;9.964;2023-05-07T17:27:53;48.13;;;46.25;;
37284;SDS011;23172;53.550;9.964;2023-05-07T17:32:56;43.78;;;42.05;;
37284;SDS011;23172;53.550;9.964;2023-05-07T17:37:58;41.38;;;39.60;;
37284;SDS011;23172;53.550;9.964;2023-05-07T17:43:02;47.85;;;46.00;;
37284;SDS011;23172;53.550;9.964;2023-05-07T17:48:05;43.47;;;41.83;;
37284;SDS011;23172;53.550;9.964;2023-05-07T17:53:07;46.47;;;44.58;;
37284;SDS011;23172;53.550;9.964;2023-05-07T17:58:09;35.45;;;33.95;;
37284;SDS011;23172;53.550;9.964;2023-05-07T18:03:12;36.42;;;34.92;;
37284;SDS011;23172;53.550;9.964;2023-05-07T18:08:14;41.20;;;39.50;;
37284;SDS011;23172;53.550;9.964;2023-05-07T18:13:16;29.13;;;28.00;;
37284;SDS011;23172;53.550;9.964;2023-05-07T18:18:19;25.90;;;24.85;;
37284;SDS011;23172;53.550;9.964;2023-05-07T18:23:21;20.92;;;20.08;;
37284;SDS011;23172;53.550;9.964;2023-05-07T18:28:23;18.58;;;17.73;;
37284;SDS011;23172;53.550;9.964;2023-05-07T18:33:26;17.98;;;17.08;;
37284;SDS011;23172;53.550;9.964;2023-05-07T18:38:28;17.55;;;16.65;;
37284;SDS011;23172;53.550;9.964;2023-05-07T18:43:30;12.05;;;11.48;;
37284;SDS011;23172;53.550;9.964;2023-05-07T18:48:34;15.48;;;14.77;;
37284;SDS011;23172;53.550;9.964;2023-05-07T18:53:36;15.45;;;14.80;;
37284;SDS011;23172;53.550;9.964;2023-05-07T18:58:38;11.73;;;11.20;;
37284;SDS011;23172;53.550;9.964;2023-05-07T19:03:41;12.75;;;12.18;;
37284;SDS011;23172;53.550;9.964;2023-05-07T19:08:43;11.32;;;10.73;;
37284;SDS011;23172;53.550;9.964;2023-05-07T19:13:45;14.88;;;14.18;;
37284;SDS011;23172;53.550;9.964;2023-05-07T19:18:48;11.38;;;10.88;;
37284;SDS011;23172;53.550;9.964;2023-05-07T19:23:50;11.55;;;10.90;;
37284;SDS011;23172;53.550;9.964;2023-05-07T19:28:52;5.45;;;5.15;;
37284;SDS011;23172;53.550;9.964;2023-05-07T19:33:57;6.80;;;6.40;;
37284;SDS011;23172;53.550;9.964;2023-05-07T19:38:59;10.55;;;10.05;;
37284;SDS011;23172;53.550;9.964;2023-05-07T19:44:01;10.27;;;9.77;;
37284;SDS011;23172;53.550;9.964;2023-05-07T19:49:04;9.45;;;8.95;;
37284;SDS011;23172;53.550;9.964;2023-05-07T19:54:06;10.95;;;10.45;;
37284;SDS011;23172;53.550;9.964;2023-05-07T19:59:08;10.10;;;9.60;;
37284;SDS011;23172;53.550;9.964;2023-05-07T20:04:11;10.18;;;9.57;;
37284;SDS011;23172;53.550;9.964;2023-05-07T20:09:13;9.93;;;9.40;;
37284;SDS011;23172;53.550;9.964;2023-05-07T20:14:15;12.15;;;11.35;;
37284;SDS011;23172;53.550;9.964;2023-05-07T20:19:18;10.52;;;9.85;;
37284;SDS011;23172;53.550;9.964;2023-05-07T20:24:21;6.93;;;6.45;;
37284;SDS011;23172;53.550;9.964;2023-05-07T20:29:23;7.60;;;7.00;;
37284;SDS011;23172;53.550;9.964;2023-05-07T20:34:26;6.00;;;5.55;;
37284;SDS011;23172;53.550;9.964;2023-05-07T20:39:28;5.70;;;5.20;;
37284;SDS011;23172;53.550;9.964;2023-05-07T20:44:31;6.35;;;5.93;;
37284;SDS011;23172;53.550;9.964;2023-05-07T20:49:34;5.45;;;4.95;;
37284;SDS011;23172;53.550;9.964;2023-05-07T20:54:36;6.28;;;5.88;;
37284;SDS011;23172;53.550;9.964;2023-05-07T20:59:39;5.57;;;5.18;;
37284;SDS011;23172;53.550;9.964;2023-05-07T21:04:44;5.07;;;4.78;;
37284;SDS011;23172;53.550;9.964;2023-05-07T21:09:46;6.25;;;5.82;;
37284;SDS011;23172;53.550;9.964;2023-05-07T21:14:48;5.20;;;4.88;;
37284;SDS011;23172;53.550;9.964;2023-05-07T21:19:51;4.85;;;4.50;;
37284;SDS011;23172;53.550;9.964;2023-05-07T21:24:53;3.58;;;3.28;;
37284;SDS011;23172;53.550;9.964;2023-05-07T21:29:55;5.65;;;5.35;;
37284;SDS011;23172;53.550;9.964;2023-05-07T21:35:05;5.43;;;5.07;;
37284;SDS011;23172;53.550;9.964;2023-05-07T21:40:08;5.70;;;5.40;;
37284;SDS011;23172;53.550;9.964;2023-05-07T21:45:10;5.95;;;5.68;;
37284;SDS011;23172;53.550;9.964;2023-05-07T21:50:14;5.18;;;4.78;;
37284;SDS011;23172;53.550;9.964;2023-05-07T21:55:17;4.28;;;3.97;;
37284;SDS011;23172;53.550;9.964;2023-05-07T22:00:19;4.75;;;4.30;;
37284;SDS011;23172;53.550;9.964;2023-05-07T22:05:22;6.43;;;6.03;;
37284;SDS011;23172;53.550;9.964;2023-05-07T22:10:24;5.85;;;5.45;;
37284;SDS011;23172;53.550;9.964;2023-05-07T22:15:26;5.30;;;4.88;;
37284;SDS011;23172;53.550;9.964;2023-05-07T22:20:30;5.18;;;4.88;;
37284;SDS011;23172;53.550;9.964;2023-05-07T22:25:32;5.13;;;4.80;;
37284;SDS011;23172;53.550;9.964;2023-05-07T22:30:34;4.32;;;4.03;;
37284;SDS011;23172;53.550;9.964;2023-05-07T22:35:38;3.85;;;3.58;;
37284;SDS011;23172;53.550;9.964;2023-05-07T22:40:40;3.63;;;3.28;;
37284;SDS011;23172;53.550;9.964;2023-05-07T22:45:42;4.40;;;3.58;;
37284;SDS011;23172;53.550;9.964;2023-05-07T22:50:45;3.60;;;3.25;;
37284;SDS011;23172;53.550;9.964;2023-05-07T22:55:47;3.65;;;3.35;;
37284;SDS011;23172;53.550;9.964;2023-05-07T23:00:49;3.83;;;3.45;;
37284;SDS011;23172;53.550;9.964;2023-05-07T23:05:53;3.22;;;2.90;;
37284;SDS011;23172;53.550;9.964;2023-05-07T23:10:55;3.40;;;3.10;;
37284;SDS011;23172;53.550;9.964;2023-05-07T23:15:57;3.20;;;2.90;;
37284;SDS011;23172;53.550;9.964;2023-05-07T23:21:00;2.95;;;2.75;;
37284;SDS011;23172;53.550;9.964;2023-05-07T23:26:02;3.22;;;2.92;;
37284;SDS011;23172;53.550;9.964;2023-05-07T23:31:05;3.65;;;3.35;;
37284;SDS011;23172;53.550;9.964;2023-05-07T23:36:09;3.60;;;3.30;;
37284;SDS011;23172;53.550;9.964;2023-05-07T23:41:11;3.70;;;3.40;;
37284;SDS011;23172;53.550;9.964;2023-05-07T23:46:13;3.80;;;3.50;;
37284;SDS011;23172;53.550;9.964;2023-05-07T23:51:16;3.80;;;2.80;;
37284;SDS011;23172;53.550;9.964;2023-05-07T23:56:18;2.90;;;2.70;;
